Time;durP1;ratioP1;P1;durP2;ratioP2;P2;SDS_P1;SDS_P2;PMS_P1;PMS_P2;Temp;Humidity;BMP_temperature;BMP_pressure;BME280_temperature;BME280_humidity;BME280_pressure;Samples;Min_cycle;Max_cycle;Signal;HPM_P1;HPM_P2
2022/10/08 00:01:37;;;;;;;9.37;3.37;;;10.20;99.90;;;;;;5007741;28;20280;-85
2022/10/08 00:04:10;;;;;;;7.90;3.00;;;10.30;99.90;;;;;;5004952;28;20300;-85
2022/10/08 00:06:37;;;;;;;9.77;3.20;;;10.30;99.90;;;;;;5008518;28;20610;-85
2022/10/08 00:09:06;;;;;;;8.97;2.83;;;10.30;99.90;;;;;;5011998;28;20254;-85
2022/10/08 00:11:35;;;;;;;12.80;3.07;;;10.30;99.90;;;;;;5006460;28;20223;-86
2022/10/08 00:14:01;;;;;;;8.87;3.03;;;10.30;99.90;;;;;;5009764;28;20218;-86
2022/10/08 00:16:31;;;;;;;10.40;3.10;;;10.30;99.90;;;;;;5017197;28;20240;-85
2022/10/08 00:19:01;;;;;;;11.63;2.73;;;10.30;99.90;;;;;;5007510;28;20283;-86
2022/10/08 00:21:32;;;;;;;7.87;2.90;;;10.30;99.90;;;;;;5004686;28;20235;-85
2022/10/08 00:24:00;;;;;;;9.00;3.00;;;10.30;99.90;;;;;;5018434;28;20230;-85
2022/10/08 00:26:28;;;;;;;9.87;2.90;;;10.20;99.90;;;;;;5019481;28;20283;-85
2022/10/08 00:28:59;;;;;;;14.40;3.50;;;10.20;99.90;;;;;;5011863;28;20245;-84
2022/10/08 00:31:28;;;;;;;9.90;3.23;;;10.10;99.90;;;;;;5006086;28;20328;-85
2022/10/08 00:33:58;;;;;;;11.07;2.90;;;10.10;99.90;;;;;;5007706;28;20226;-85
2022/10/08 00:36:31;;;;;;;10.63;3.00;;;10.10;99.90;;;;;;5007947;28;20264;-85
2022/10/08 00:38:59;;;;;;;9.23;3.20;;;10.00;99.90;;;;;;5006422;28;20229;-84
2022/10/08 00:41:28;;;;;;;12.47;3.03;;;9.90;99.90;;;;;;5005248;28;20422;-85
2022/10/08 00:43:58;;;;;;;10.37;3.20;;;9.90;99.90;;;;;;5024596;28;20741;-85
2022/10/08 00:46:30;;;;;;;9.50;2.83;;;9.90;99.90;;;;;;5003276;28;20343;-85
2022/10/08 00:49:02;;;;;;;8.53;3.20;;;9.80;99.90;;;;;;5019788;28;20233;-86
2022/10/08 00:51:30;;;;;;;8.83;2.83;;;9.80;99.90;;;;;;5005532;28;20616;-85
2022/10/08 00:53:58;;;;;;;14.43;3.47;;;9.70;99.90;;;;;;5010597;28;20650;-86
2022/10/08 00:56:25;;;;;;;8.27;2.83;;;9.70;99.90;;;;;;4998048;28;20245;-85
2022/10/08 00:58:52;;;;;;;11.10;3.30;;;9.70;99.90;;;;;;5020219;28;20276;-86
2022/10/08 01:01:24;;;;;;;11.40;3.37;;;9.70;99.90;;;;;;5000826;28;20248;-85
2022/10/08 01:03:54;;;;;;;10.77;3.33;;;9.70;99.90;;;;;;5007301;28;20233;-85
2022/10/08 01:06:28;;;;;;;8.57;2.97;;;9.70;99.90;;;;;;4996353;28;20224;-85
2022/10/08 01:09:02;;;;;;;13.80;3.33;;;9.70;99.90;;;;;;5004584;28;20225;-85
2022/10/08 01:11:38;;;;;;;9.27;3.07;;;9.70;99.90;;;;;;5023399;28;20235;-85
2022/10/08 01:14:15;;;;;;;9.67;3.10;;;9.80;99.90;;;;;;5000390;28;20230;-85
2022/10/08 01:16:49;;;;;;;11.87;3.33;;;9.70;99.90;;;;;;5005134;28;20291;-85
2022/10/08 01:19:40;;;;;;;9.53;2.77;;;9.70;99.90;;;;;;5005943;28;20237;-85
2022/10/08 01:22:28;;;;;;;8.03;2.97;;;9.70;99.90;;;;;;5017112;28;20263;-83
2022/10/08 01:27:53;;;;;;;7.73;2.90;;;9.70;99.90;;;;;;5012095;28;20311;-83
2022/10/08 01:30:21;;;;;;;7.50;3.23;;;9.70;99.90;;;;;;5002598;28;20233;-85
2022/10/08 01:32:53;;;;;;;12.80;3.43;;;9.70;99.90;;;;;;5002429;28;20278;-84
2022/10/08 01:35:28;;;;;;;10.63;3.33;;;9.60;99.90;;;;;;5009581;28;20225;-85
2022/10/08 01:37:57;;;;;;;11.07;3.40;;;9.60;99.90;;;;;;5011841;28;20232;-86
2022/10/08 01:40:28;;;;;;;10.10;3.77;;;9.60;99.90;;;;;;5003191;28;20249;-85
2022/10/08 01:42:58;;;;;;;7.73;2.47;;;9.60;99.90;;;;;;5003277;28;20225;-86
2022/10/08 01:45:30;;;;;;;9.67;2.80;;;9.50;99.90;;;;;;5002923;28;22039;-85
2022/10/08 01:47:59;;;;;;;10.23;2.70;;;9.50;99.90;;;;;;5005606;28;20233;-86
2022/10/08 01:50:32;;;;;;;7.23;2.93;;;9.50;99.90;;;;;;5013052;28;20225;-86
2022/10/08 01:53:03;;;;;;;8.13;3.40;;;9.50;99.90;;;;;;5001392;28;20248;-86
2022/10/08 01:55:34;;;;;;;9.03;2.87;;;9.50;99.90;;;;;;5008535;28;20239;-85
2022/10/08 01:58:06;;;;;;;8.97;2.80;;;9.40;99.90;;;;;;5011842;28;20240;-84
2022/10/08 02:00:35;;;;;;;10.90;3.13;;;9.50;99.90;;;;;;5008297;28;20228;-84
2022/10/08 02:03:03;;;;;;;8.97;2.93;;;9.40;99.90;;;;;;5004909;28;20829;-85
2022/10/08 02:05:33;;;;;;;10.97;2.83;;;9.40;99.90;;;;;;5004872;28;20225;-85
2022/10/08 02:08:01;;;;;;;10.27;2.57;;;9.40;99.90;;;;;;5005535;28;20228;-85
2022/10/08 02:10:28;;;;;;;9.67;2.80;;;9.40;99.90;;;;;;4997612;28;20305;-85
2022/10/08 02:12:55;;;;;;;9.33;2.60;;;9.30;99.90;;;;;;5010519;28;20273;-86
2022/10/08 02:15:34;;;;;;;10.03;2.90;;;9.30;99.90;;;;;;5017332;28;20221;-86
2022/10/08 02:18:09;;;;;;;12.60;3.07;;;9.30;99.90;;;;;;4990751;28;20318;-86
2022/10/08 02:20:39;;;;;;;13.43;3.27;;;9.30;99.90;;;;;;5006224;28;20294;-82
2022/10/08 02:23:13;;;;;;;11.20;3.20;;;9.30;99.90;;;;;;5010438;28;20228;-85
2022/10/08 02:25:46;;;;;;;8.87;2.93;;;9.30;99.90;;;;;;5018771;28;20229;-86
2022/10/08 02:28:19;;;;;;;8.07;3.13;;;9.20;99.90;;;;;;5012616;28;20754;-85
2022/10/08 02:30:51;;;;;;;7.90;3.07;;;9.20;99.90;;;;;;5015053;28;20857;-84
2022/10/08 02:33:24;;;;;;;11.27;2.90;;;9.20;99.90;;;;;;5010570;28;20301;-84
2022/10/08 02:35:55;;;;;;;11.90;3.10;;;9.20;99.90;;;;;;5028553;28;21123;-85
2022/10/08 02:38:28;;;;;;;8.10;2.60;;;9.20;99.90;;;;;;5008848;28;20239;-85
2022/10/08 02:41:00;;;;;;;10.57;3.27;;;9.20;99.90;;;;;;5026339;28;20231;-85
2022/10/08 02:43:31;;;;;;;10.13;2.90;;;9.20;99.90;;;;;;5023703;28;20225;-84
2022/10/08 02:46:03;;;;;;;11.13;2.70;;;9.20;99.90;;;;;;5010196;28;20229;-84
2022/10/08 02:48:32;;;;;;;8.70;2.43;;;9.20;99.90;;;;;;5011265;28;20282;-84
2022/10/08 02:51:04;;;;;;;11.37;2.90;;;9.20;99.90;;;;;;5020469;28;20750;-84
2022/10/08 02:53:32;;;;;;;9.17;2.87;;;9.20;99.90;;;;;;5003359;28;20228;-83
2022/10/08 02:56:09;;;;;;;12.17;3.00;;;9.30;99.90;;;;;;5009389;28;20228;-83
2022/10/08 02:58:36;;;;;;;9.50;2.97;;;9.30;99.90;;;;;;5016351;28;20256;-84
2022/10/08 03:01:15;;;;;;;8.73;2.70;;;9.30;99.90;;;;;;5008731;28;21439;-84
2022/10/08 03:03:53;;;;;;;11.83;3.17;;;9.30;99.90;;;;;;5010268;28;20294;-84
2022/10/08 03:06:21;;;;;;;15.23;3.50;;;9.40;99.90;;;;;;5012980;28;20909;-84
2022/10/08 03:08:49;;;;;;;9.67;2.90;;;9.40;99.90;;;;;;5013238;28;20284;-84
2022/10/08 03:11:16;;;;;;;10.20;2.53;;;9.40;99.90;;;;;;5012023;28;20234;-84
2022/10/08 03:13:48;;;;;;;9.60;3.23;;;9.40;99.90;;;;;;5020466;28;20387;-83
2022/10/08 03:16:19;;;;;;;8.13;3.20;;;9.50;99.90;;;;;;5025465;28;20686;-85
2022/10/08 03:18:47;;;;;;;8.67;2.93;;;9.50;99.90;;;;;;5009479;28;20269;-84
2022/10/08 03:21:15;;;;;;;9.40;3.40;;;9.50;99.90;;;;;;5025199;28;20983;-86
2022/10/08 03:23:42;;;;;;;10.30;2.53;;;9.60;99.90;;;;;;5016421;28;20227;-85
2022/10/08 03:26:09;;;;;;;10.83;3.10;;;9.70;99.90;;;;;;5017321;28;20245;-85
2022/10/08 03:28:38;;;;;;;8.30;2.70;;;9.70;99.90;;;;;;5003676;28;20222;-85
2022/10/08 03:31:05;;;;;;;10.90;3.07;;;9.80;99.90;;;;;;5021547;28;20740;-87
2022/10/08 03:33:34;;;;;;;9.90;2.60;;;9.80;99.90;;;;;;4998228;28;20269;-87
2022/10/08 03:36:00;;;;;;;11.00;3.87;;;9.90;99.90;;;;;;5011713;28;20221;-88
2022/10/08 03:38:27;;;;;;;10.17;3.10;;;10.00;99.90;;;;;;5017957;28;20263;-83
2022/10/08 03:40:56;;;;;;;10.97;3.40;;;10.00;99.90;;;;;;5021469;28;20316;-85
2022/10/08 03:43:23;;;;;;;8.10;2.77;;;10.10;99.90;;;;;;5015924;28;20282;-84
2022/10/08 03:45:51;;;;;;;8.33;3.00;;;10.20;99.90;;;;;;5007644;28;20246;-87
2022/10/08 03:48:18;;;;;;;13.77;3.23;;;10.30;99.90;;;;;;5011971;28;20949;-87
2022/10/08 03:50:51;;;;;;;11.30;3.37;;;10.30;99.90;;;;;;5008230;28;20292;-86
2022/10/08 03:53:18;;;;;;;11.97;3.10;;;10.40;99.90;;;;;;5012531;28;20230;-86
2022/10/08 03:55:45;;;;;;;11.33;3.53;;;10.50;99.90;;;;;;5012482;28;20227;-86
2022/10/08 03:58:12;;;;;;;12.17;3.13;;;10.50;99.90;;;;;;5018368;28;20352;-85
2022/10/08 04:00:42;;;;;;;9.77;3.20;;;10.60;99.90;;;;;;5001304;28;20351;-82
2022/10/08 04:03:09;;;;;;;8.90;2.70;;;10.60;99.90;;;;;;5012087;28;20236;-83
2022/10/08 04:05:36;;;;;;;10.87;3.10;;;10.70;99.90;;;;;;5006962;28;20725;-84
2022/10/08 04:08:04;;;;;;;10.03;2.87;;;10.70;99.90;;;;;;5012878;28;20252;-83
2022/10/08 04:10:31;;;;;;;8.83;3.33;;;10.70;99.90;;;;;;5003900;28;20312;-83
2022/10/08 04:12:57;;;;;;;12.57;3.20;;;10.80;99.90;;;;;;5001324;28;20712;-82
2022/10/08 04:15:26;;;;;;;12.70;3.40;;;10.80;99.90;;;;;;5009281;28;20267;-82
2022/10/08 04:17:54;;;;;;;12.40;3.00;;;10.80;99.90;;;;;;5009358;28;20233;-84
2022/10/08 04:20:20;;;;;;;12.37;3.00;;;10.80;99.90;;;;;;5017182;28;20233;-82
2022/10/08 04:22:49;;;;;;;10.27;2.80;;;10.80;99.90;;;;;;5012195;28;20299;-82
2022/10/08 04:25:17;;;;;;;13.67;3.30;;;10.80;99.90;;;;;;5034674;28;20229;-82
2022/10/08 04:27:47;;;;;;;6.37;2.50;;;10.90;99.90;;;;;;5008948;28;20296;-82
2022/10/08 04:30:14;;;;;;;10.57;3.60;;;10.80;99.90;;;;;;5013441;28;20230;-83
2022/10/08 04:32:41;;;;;;;9.73;3.60;;;10.80;99.90;;;;;;5004339;28;20318;-81
2022/10/08 04:35:08;;;;;;;10.10;2.90;;;10.90;99.90;;;;;;5003254;28;20239;-81
2022/10/08 04:37:35;;;;;;;11.27;3.07;;;10.90;99.90;;;;;;5025897;28;20233;-83
2022/10/08 04:40:02;;;;;;;9.20;3.40;;;10.90;99.90;;;;;;5009919;28;20221;-82
2022/10/08 04:42:31;;;;;;;9.13;3.27;;;10.90;99.90;;;;;;5009528;28;20228;-82
2022/10/08 04:44:57;;;;;;;7.50;2.87;;;10.90;99.90;;;;;;5005924;28;20310;-81
2022/10/08 04:47:24;;;;;;;10.10;3.50;;;10.90;99.90;;;;;;5016815;28;20287;-82
2022/10/08 04:49:51;;;;;;;10.60;2.97;;;10.90;99.90;;;;;;5005642;28;20425;-80
2022/10/08 04:52:19;;;;;;;10.00;2.87;;;10.90;99.90;;;;;;5005893;28;20425;-82
2022/10/08 04:54:46;;;;;;;8.13;3.07;;;11.00;99.90;;;;;;5007395;28;20235;-83
2022/10/08 04:57:13;;;;;;;11.67;3.73;;;10.90;99.90;;;;;;5006753;28;20283;-84
2022/10/08 04:59:41;;;;;;;12.97;3.13;;;11.00;99.90;;;;;;5012285;28;21567;-84
2022/10/08 05:02:07;;;;;;;9.70;3.57;;;11.00;99.90;;;;;;5015864;28;20267;-82
2022/10/08 05:04:34;;;;;;;6.73;2.73;;;11.00;99.90;;;;;;5000467;28;20289;-82
2022/10/08 05:07:01;;;;;;;12.70;3.40;;;10.90;99.90;;;;;;5010905;28;20216;-81
2022/10/08 05:09:27;;;;;;;12.07;3.63;;;10.90;99.90;;;;;;5008982;28;20217;-81
2022/10/08 05:11:54;;;;;;;9.17;3.33;;;10.90;99.90;;;;;;5012113;28;20240;-81
2022/10/08 05:14:21;;;;;;;10.53;3.73;;;10.90;99.90;;;;;;4997824;28;20226;-82
2022/10/08 05:16:49;;;;;;;9.90;3.10;;;10.90;99.90;;;;;;5000653;28;20237;-81
2022/10/08 05:19:16;;;;;;;9.20;3.37;;;10.90;99.90;;;;;;5015869;28;20230;-83
2022/10/08 05:21:43;;;;;;;10.70;3.10;;;10.90;99.90;;;;;;5002431;28;20222;-82
2022/10/08 05:24:11;;;;;;;13.07;3.67;;;10.90;99.90;;;;;;5019760;28;20328;-81
2022/10/08 05:26:41;;;;;;;9.73;3.50;;;10.80;99.90;;;;;;5001358;28;20231;-82
2022/10/08 05:29:09;;;;;;;10.43;3.40;;;10.80;99.90;;;;;;5000072;28;20230;-82
2022/10/08 05:31:36;;;;;;;11.50;3.77;;;10.80;99.90;;;;;;5002958;28;20229;-81
2022/10/08 05:34:05;;;;;;;12.87;3.20;;;10.80;99.90;;;;;;4998729;28;20240;-81
2022/10/08 05:36:33;;;;;;;14.80;3.37;;;10.70;99.90;;;;;;5019156;28;20229;-81
2022/10/08 05:39:04;;;;;;;13.97;3.93;;;10.70;99.90;;;;;;5001738;28;20744;-81
2022/10/08 05:41:32;;;;;;;14.20;3.70;;;10.70;99.90;;;;;;4997752;28;20230;-81
2022/10/08 05:44:00;;;;;;;11.13;3.10;;;10.70;99.90;;;;;;5002043;28;20269;-81
2022/10/08 05:46:29;;;;;;;12.30;3.23;;;10.70;99.90;;;;;;5001108;28;20257;-80
2022/10/08 05:48:59;;;;;;;12.00;3.97;;;10.70;99.90;;;;;;4998398;28;20316;-81
2022/10/08 05:51:28;;;;;;;11.00;3.70;;;10.70;99.90;;;;;;5002175;28;20240;-81
2022/10/08 05:53:56;;;;;;;11.17;4.00;;;10.60;99.90;;;;;;5004840;28;20231;-81
2022/10/08 05:56:24;;;;;;;11.40;3.30;;;10.70;99.90;;;;;;4999162;28;20678;-81
2022/10/08 05:58:51;;;;;;;12.57;3.63;;;10.80;99.90;;;;;;5004018;28;20309;-81
2022/10/08 06:01:20;;;;;;;10.90;3.40;;;10.80;99.90;;;;;;5000126;28;20225;-81
2022/10/08 06:03:48;;;;;;;9.03;3.63;;;10.80;99.90;;;;;;5006140;28;20918;-81
2022/10/08 06:06:15;;;;;;;6.93;3.40;;;10.80;99.90;;;;;;5002188;28;21249;-81
2022/10/08 06:08:44;;;;;;;10.43;3.70;;;10.80;99.90;;;;;;5005048;28;20750;-81
2022/10/08 06:11:10;;;;;;;12.07;3.90;;;10.80;99.90;;;;;;4997397;28;20245;-80
2022/10/08 06:13:37;;;;;;;9.37;3.57;;;10.80;99.90;;;;;;5017820;28;20228;-81
2022/10/08 06:16:07;;;;;;;9.43;3.30;;;10.80;99.90;;;;;;5004525;28;20229;-81
2022/10/08 06:18:37;;;;;;;10.37;3.77;;;10.80;99.90;;;;;;5004101;28;20290;-81
2022/10/08 06:21:06;;;;;;;9.50;3.43;;;10.80;99.90;;;;;;5004014;28;20702;-81
2022/10/08 06:23:33;;;;;;;10.03;4.00;;;10.80;99.90;;;;;;4995797;28;20252;-82
2022/10/08 06:26:05;;;;;;;14.50;3.93;;;10.80;99.90;;;;;;5000127;28;20349;-82
2022/10/08 06:28:34;;;;;;;11.20;3.30;;;10.80;99.90;;;;;;5017822;28;20313;-82
2022/10/08 06:31:00;;;;;;;8.30;3.27;;;10.80;99.90;;;;;;5015696;28;20715;-82
2022/10/08 06:33:28;;;;;;;11.63;4.00;;;10.80;99.90;;;;;;5002037;28;20231;-82
2022/10/08 06:35:55;;;;;;;10.97;3.87;;;10.80;99.90;;;;;;5006099;28;20831;-82
2022/10/08 06:38:21;;;;;;;10.00;3.30;;;10.80;99.90;;;;;;5014983;28;20240;-82
2022/10/08 06:40:51;;;;;;;10.60;3.67;;;10.90;99.90;;;;;;5008619;28;20228;-81
2022/10/08 06:43:19;;;;;;;10.37;3.17;;;10.90;99.90;;;;;;5021654;28;20511;-83
2022/10/08 06:45:47;;;;;;;8.17;3.33;;;10.90;99.90;;;;;;5016586;28;20305;-83
2022/10/08 06:48:14;;;;;;;7.00;3.20;;;11.00;99.90;;;;;;5011087;28;20310;-83
2022/10/08 06:50:43;;;;;;;9.00;3.00;;;11.00;99.90;;;;;;5001800;28;20284;-81
2022/10/08 06:53:10;;;;;;;9.90;3.57;;;11.10;99.90;;;;;;5004581;28;20253;-82
2022/10/08 06:55:37;;;;;;;9.67;3.03;;;11.10;99.90;;;;;;5008306;28;20221;-82
2022/10/08 06:58:05;;;;;;;11.77;3.40;;;11.10;99.90;;;;;;5021399;28;20226;-81
2022/10/08 07:00:33;;;;;;;10.67;3.10;;;11.10;99.90;;;;;;5011385;28;20222;-82
2022/10/08 07:03:00;;;;;;;13.53;4.10;;;11.10;99.90;;;;;;5005600;28;20275;-82
2022/10/08 07:05:26;;;;;;;13.53;3.63;;;11.20;99.90;;;;;;5013692;28;20231;-81
2022/10/08 07:07:53;;;;;;;11.33;3.67;;;11.20;99.90;;;;;;5015721;28;20230;-83
2022/10/08 07:10:20;;;;;;;10.63;3.10;;;11.20;99.90;;;;;;5008032;28;20305;-79
2022/10/08 07:12:47;;;;;;;8.90;3.47;;;11.20;99.90;;;;;;5010799;28;20223;-82
2022/10/08 07:15:13;;;;;;;8.30;3.20;;;11.30;99.90;;;;;;5011890;28;20695;-81
2022/10/08 07:17:41;;;;;;;7.87;2.93;;;11.30;99.90;;;;;;5024426;28;20245;-82
2022/10/08 07:20:08;;;;;;;9.13;3.00;;;11.40;99.90;;;;;;5026164;28;20703;-83
2022/10/08 07:22:35;;;;;;;8.67;3.10;;;11.40;99.90;;;;;;5007785;28;20233;-82
2022/10/08 07:25:02;;;;;;;9.63;3.70;;;11.50;99.90;;;;;;5009664;28;20237;-83
2022/10/08 07:27:31;;;;;;;8.57;2.77;;;11.50;99.90;;;;;;5004598;28;20735;-83
2022/10/08 07:29:58;;;;;;;9.07;3.00;;;11.60;99.90;;;;;;5026735;28;20572;-82
2022/10/08 07:32:24;;;;;;;7.77;3.23;;;11.70;99.90;;;;;;5026379;28;20318;-82
2022/10/08 07:34:52;;;;;;;9.57;3.03;;;11.70;99.90;;;;;;5010098;28;20238;-82
2022/10/08 07:37:19;;;;;;;10.17;3.60;;;11.70;99.90;;;;;;5010083;28;21062;-84
2022/10/08 07:39:49;;;;;;;9.13;3.37;;;11.70;99.90;;;;;;5010545;28;20656;-83
2022/10/08 07:42:15;;;;;;;10.87;3.23;;;11.80;99.90;;;;;;5006278;28;20230;-83
2022/10/08 07:44:42;;;;;;;10.00;2.93;;;11.80;99.90;;;;;;4996924;28;20228;-83
2022/10/08 07:47:09;;;;;;;10.03;3.33;;;11.90;99.90;;;;;;5006623;28;20491;-83
2022/10/08 07:49:36;;;;;;;11.07;3.00;;;11.90;99.90;;;;;;5019108;28;20317;-83
2022/10/08 07:52:04;;;;;;;9.47;2.90;;;12.00;99.90;;;;;;5013862;28;20306;-83
2022/10/08 07:54:31;;;;;;;9.90;3.00;;;12.10;99.90;;;;;;5020491;28;20232;-83
2022/10/08 07:57:00;;;;;;;7.77;2.80;;;12.10;99.90;;;;;;5011474;28;20600;-82
2022/10/08 07:59:27;;;;;;;6.37;2.80;;;12.20;99.90;;;;;;5025924;28;20228;-83
2022/10/08 08:01:54;;;;;;;13.63;3.17;;;12.30;99.90;;;;;;5018419;28;20307;-83
2022/10/08 08:04:21;;;;;;;9.90;3.23;;;12.40;99.90;;;;;;4998319;28;20311;-83
2022/10/08 08:06:48;;;;;;;10.13;3.03;;;12.50;99.90;;;;;;5008284;28;20254;-83
2022/10/08 08:09:17;;;;;;;9.87;3.40;;;12.50;99.90;;;;;;5017428;28;20309;-75
2022/10/08 08:11:44;;;;;;;8.63;3.03;;;12.60;99.90;;;;;;5002877;28;20711;-74
2022/10/08 08:14:12;;;;;;;11.47;3.23;;;12.60;99.90;;;;;;5009669;28;20325;-75
2022/10/08 08:16:39;;;;;;;7.60;3.10;;;12.60;99.90;;;;;;5011852;28;20325;-75
2022/10/08 08:19:06;;;;;;;16.43;3.10;;;12.70;99.90;;;;;;5007262;28;20231;-76
2022/10/08 08:21:35;;;;;;;10.83;3.00;;;12.70;99.90;;;;;;5005042;28;20222;-75
2022/10/08 08:24:05;;;;;;;7.90;3.07;;;12.70;99.90;;;;;;5007529;28;20253;-77
2022/10/08 08:26:35;;;;;;;5.90;2.50;;;12.70;99.90;;;;;;5008289;28;20247;-77
2022/10/08 08:29:04;;;;;;;8.93;2.67;;;12.70;99.90;;;;;;5008021;28;20225;-75
2022/10/08 08:31:33;;;;;;;12.80;3.20;;;12.80;99.90;;;;;;5004237;28;20231;-75
2022/10/08 08:34:01;;;;;;;12.67;2.83;;;12.80;99.90;;;;;;5003482;28;20321;-76
2022/10/08 08:36:30;;;;;;;23.50;4.10;;;12.80;99.90;;;;;;4993902;28;20246;-76
2022/10/08 08:38:57;;;;;;;6.27;2.60;;;12.90;99.90;;;;;;4997510;28;20708;-77
2022/10/08 08:41:53;;;;;;;7.40;2.30;;;13.00;99.90;;;;;;5005955;28;20225;-84
2022/10/08 08:44:23;;;;;;;6.30;2.07;;;13.20;99.90;;;;;;5004279;28;20793;-84
2022/10/08 08:46:54;;;;;;;11.60;2.67;;;13.40;99.90;;;;;;5014511;28;20231;-83
2022/10/08 08:49:30;;;;;;;8.10;1.90;;;13.60;99.90;;;;;;5005180;28;20674;-86
2022/10/08 08:52:02;;;;;;;7.77;2.07;;;13.90;99.90;;;;;;5006744;28;20222;-84
2022/10/08 08:54:29;;;;;;;7.37;2.20;;;14.30;99.90;;;;;;5007333;28;20250;-84
2022/10/08 08:57:08;;;;;;;9.77;2.10;;;14.70;99.90;;;;;;5020256;28;20306;-81
2022/10/08 08:59:41;;;;;;;6.70;1.83;;;15.20;99.90;;;;;;5017551;28;20235;-83
2022/10/08 09:02:19;;;;;;;8.23;2.67;;;15.70;99.90;;;;;;5003481;28;20229;-84
2022/10/08 09:04:50;;;;;;;9.97;2.23;;;16.10;99.90;;;;;;5007164;28;20231;-82
2022/10/08 09:07:22;;;;;;;7.40;2.00;;;16.50;99.90;;;;;;5010212;28;20236;-83
2022/10/08 09:09:52;;;;;;;8.10;2.60;;;16.60;99.90;;;;;;5015015;28;20229;-83
2022/10/08 09:12:23;;;;;;;8.47;2.40;;;16.70;99.90;;;;;;5021753;28;20306;-81
2022/10/08 09:14:55;;;;;;;5.80;2.03;;;16.70;99.90;;;;;;5013626;28;20237;-84
2022/10/08 09:17:29;;;;;;;8.90;2.20;;;16.70;99.90;;;;;;5007135;28;20320;-81
2022/10/08 09:19:56;;;;;;;7.70;2.00;;;16.70;99.90;;;;;;5013454;28;20350;-82
2022/10/08 09:22:25;;;;;;;11.27;2.77;;;16.60;99.90;;;;;;5018304;28;20607;-81
2022/10/08 09:24:57;;;;;;;8.33;2.13;;;16.60;99.90;;;;;;5015810;28;20371;-81
2022/10/08 09:27:41;;;;;;;8.63;1.93;;;16.60;99.90;;;;;;5012349;28;20332;-81
2022/10/08 09:30:26;;;;;;;9.30;2.10;;;16.60;99.90;;;;;;5010526;28;20219;-81
2022/10/08 09:32:53;;;;;;;7.00;1.70;;;16.60;99.90;;;;;;5012898;28;20697;-81
2022/10/08 09:35:20;;;;;;;6.30;1.93;;;16.60;99.90;;;;;;5015459;28;20313;-80
2022/10/08 09:37:48;;;;;;;4.47;1.43;;;16.60;99.90;;;;;;5013199;28;20243;-81
2022/10/08 09:40:21;;;;;;;4.53;1.67;;;16.60;99.70;;;;;;5025118;28;20235;-82
2022/10/08 09:45:45;;;;;;;6.63;1.53;;;16.60;99.60;;;;;;5129564;27;21024;-82
2022/10/08 09:48:17;;;;;;;6.13;1.67;;;16.80;99.10;;;;;;5137116;27;20285;-82
2022/10/08 09:50:51;;;;;;;6.80;1.73;;;17.00;99.20;;;;;;5105246;27;20228;-81
2022/10/08 09:53:19;;;;;;;4.50;1.40;;;17.20;98.40;;;;;;5110853;27;20304;-81
2022/10/08 09:55:53;;;;;;;5.80;1.50;;;17.50;98.80;;;;;;5115236;27;20226;-82
2022/10/08 09:58:19;;;;;;;4.77;1.27;;;17.70;98.00;;;;;;5119442;27;20248;-81
2022/10/08 10:00:57;;;;;;;4.13;1.40;;;17.90;97.80;;;;;;5114136;27;20222;-81
2022/10/08 10:03:25;;;;;;;4.37;1.30;;;18.10;96.60;;;;;;5113357;27;20233;-82
2022/10/08 10:05:53;;;;;;;6.43;1.43;;;18.30;96.70;;;;;;5051226;22;20231;-84
2022/10/08 10:08:45;;;;;;;4.68;1.38;;;18.40;96.00;;;;;;5020438;28;20300;-85
2022/10/08 10:11:14;;;;;;;4.45;1.25;;;18.50;95.50;;;;;;5018769;28;20216;-85
2022/10/08 10:13:41;;;;;;;4.57;1.47;;;18.50;95.80;;;;;;5038837;28;20220;-86
2022/10/08 10:16:14;;;;;;;5.47;1.20;;;18.50;95.40;;;;;;5027878;28;20224;-84
2022/10/08 10:18:52;;;;;;;4.23;1.13;;;18.40;94.80;;;;;;5028130;28;20299;-85
2022/10/08 10:21:23;;;;;;;3.73;1.00;;;18.30;94.90;;;;;;5020504;28;20225;-84
2022/10/08 10:24:00;;;;;;;3.07;1.40;;;18.10;95.00;;;;;;5018324;28;20227;-85
2022/10/08 10:26:31;;;;;;;6.03;1.23;;;18.00;95.10;;;;;;5018792;28;20230;-85
2022/10/08 10:29:00;;;;;;;3.87;1.33;;;17.90;95.00;;;;;;5017588;28;20592;-85
2022/10/08 10:31:33;;;;;;;4.60;1.30;;;17.80;95.00;;;;;;5024754;28;20224;-84
2022/10/08 10:34:06;;;;;;;5.70;1.27;;;17.80;94.60;;;;;;5021831;28;20367;-85
2022/10/08 10:36:41;;;;;;;2.50;0.80;;;17.80;94.60;;;;;;5021537;28;20235;-85
2022/10/08 10:39:18;;;;;;;4.90;1.20;;;17.80;94.10;;;;;;5017367;28;20226;-85
2022/10/08 10:41:50;;;;;;;4.80;1.20;;;17.80;93.20;;;;;;5018312;28;20244;-85
2022/10/08 10:44:23;;;;;;;5.17;1.10;;;17.80;93.60;;;;;;5033741;28;20224;-84
2022/10/08 10:46:54;;;;;;;2.77;1.10;;;17.70;93.30;;;;;;5033572;28;20243;-85
2022/10/08 10:49:23;;;;;;;4.40;1.00;;;17.50;93.40;;;;;;5035317;28;20229;-84
2022/10/08 10:52:01;;;;;;;3.67;1.00;;;17.40;93.60;;;;;;5015541;28;20252;-85
2022/10/08 10:54:55;;;;;;;3.47;1.07;;;17.30;93.50;;;;;;5033317;28;20216;-84
2022/10/08 10:57:38;;;;;;;3.33;0.97;;;17.10;93.70;;;;;;5018658;28;20227;-83
2022/10/08 11:00:08;;;;;;;4.90;1.20;;;16.90;93.50;;;;;;5024035;28;20674;-85
2022/10/08 11:02:42;;;;;;;5.70;1.60;;;16.70;93.90;;;;;;5010098;28;20697;-84
2022/10/08 11:05:17;;;;;;;4.73;1.10;;;16.60;94.10;;;;;;5004711;28;20625;-85
2022/10/08 11:08:08;;;;;;;3.10;0.93;;;16.60;94.60;;;;;;5020697;28;20732;-85
2022/10/08 11:10:45;;;;;;;4.70;1.27;;;16.70;94.30;;;;;;5008480;28;20224;-84
2022/10/08 11:13:28;;;;;;;1.97;0.90;;;16.90;94.70;;;;;;5004662;28;20224;-85
2022/10/08 11:16:05;;;;;;;2.20;0.80;;;17.10;94.60;;;;;;5025318;28;20244;-84
2022/10/08 11:18:42;;;;;;;3.13;1.00;;;17.40;94.40;;;;;;5001379;28;20314;-84
2022/10/08 11:21:20;;;;;;;3.70;1.20;;;17.60;93.40;;;;;;5015750;28;20260;-84
2022/10/08 11:24:01;;;;;;;3.67;0.87;;;17.70;93.00;;;;;;5012596;28;20228;-85
2022/10/08 11:26:34;;;;;;;3.23;0.90;;;17.70;92.50;;;;;;5020709;28;20224;-84
2022/10/08 11:29:08;;;;;;;3.23;1.00;;;17.60;92.40;;;;;;4999396;28;20693;-85
2022/10/08 11:31:41;;;;;;;3.73;0.90;;;17.40;92.30;;;;;;5003269;28;20932;-84
2022/10/08 11:34:20;;;;;;;9.33;1.90;;;17.20;92.40;;;;;;5002231;28;20228;-84
2022/10/08 11:36:57;;;;;;;5.10;1.30;;;17.00;95.20;;;;;;5017828;28;20230;-85
2022/10/08 11:39:31;;;;;;;5.27;1.30;;;16.70;95.40;;;;;;4996413;28;20233;-84
2022/10/08 11:42:10;;;;;;;6.70;1.10;;;16.10;95.60;;;;;;5001000;28;20336;-84
2022/10/08 11:44:37;;;;;;;3.87;1.43;;;15.40;96.60;;;;;;5009060;28;20249;-85
2022/10/08 11:47:40;;;;;;;4.80;1.10;;;14.70;97.20;;;;;;5023438;28;20822;-83
2022/10/08 11:50:23;;;;;;;3.43;0.73;;;14.00;99.20;;;;;;5010827;28;20845;-82
2022/10/08 11:52:50;;;;;;;2.13;0.80;;;13.30;99.90;;;;;;5012923;28;20549;-82
2022/10/08 11:55:20;;;;;;;3.37;0.87;;;12.90;99.90;;;;;;5010945;28;20238;-82
2022/10/08 11:57:55;;;;;;;1.87;0.50;;;12.50;99.90;;;;;;5018149;28;20236;-82
2022/10/08 12:00:36;;;;;;;2.57;0.93;;;12.20;99.90;;;;;;5010205;28;20282;-82
2022/10/08 12:03:06;;;;;;;1.87;0.80;;;12.00;99.90;;;;;;5022811;28;20559;-82
2022/10/08 12:05:42;;;;;;;2.43;0.70;;;12.00;99.90;;;;;;5010572;28;20337;-82
2022/10/08 12:08:09;;;;;;;3.50;1.10;;;12.10;99.90;;;;;;5015678;28;20227;-82
2022/10/08 12:10:37;;;;;;;4.70;0.93;;;12.30;99.90;;;;;;5016777;28;20238;-82
2022/10/08 12:13:29;;;;;;;1.83;0.80;;;12.50;99.90;;;;;;5017269;28;20270;-82
2022/10/08 12:16:07;;;;;;;3.33;0.90;;;12.80;99.90;;;;;;5008355;28;20232;-80
2022/10/08 12:18:51;;;;;;;1.07;0.60;;;13.20;99.90;;;;;;5002763;28;20746;-79
2022/10/08 12:21:53;;;;;;;1.73;0.70;;;13.50;99.90;;;;;;5001628;28;20305;-79
2022/10/08 12:24:54;;;;;;;1.37;0.60;;;13.70;99.90;;;;;;5005490;28;20318;-79
2022/10/08 12:27:28;;;;;;;1.73;0.77;;;14.10;99.90;;;;;;4998566;28;20225;-79
2022/10/08 12:29:58;;;;;;;3.33;1.00;;;14.30;99.90;;;;;;5003753;28;20226;-79
2022/10/08 12:32:26;;;;;;;1.03;0.63;;;14.50;99.90;;;;;;5010930;28;20746;-79
2022/10/08 12:34:52;;;;;;;1.93;0.80;;;14.70;99.90;;;;;;5006908;28;20238;-79
2022/10/08 12:37:39;;;;;;;1.93;0.80;;;14.90;99.90;;;;;;5013359;28;20668;-80
2022/10/08 12:40:16;;;;;;;1.43;0.60;;;15.00;99.90;;;;;;5002876;28;20249;-80
2022/10/08 12:42:43;;;;;;;2.43;0.60;;;15.20;99.90;;;;;;5010759;28;20229;-79
2022/10/08 12:45:20;;;;;;;2.63;0.67;;;15.30;99.90;;;;;;5021906;28;20225;-79
2022/10/08 12:47:53;;;;;;;1.43;0.60;;;15.40;99.90;;;;;;5015375;28;20247;-79
2022/10/08 12:50:38;;;;;;;2.00;1.00;;;15.40;99.90;;;;;;5022954;28;20229;-79
2022/10/08 12:53:07;;;;;;;3.67;0.90;;;15.50;99.90;;;;;;5006995;28;20231;-79
2022/10/08 12:55:43;;;;;;;2.60;0.83;;;15.50;99.90;;;;;;5006344;28;20235;-79
2022/10/08 12:58:15;;;;;;;3.53;1.20;;;15.50;99.90;;;;;;5001891;28;20247;-79
2022/10/08 13:00:44;;;;;;;2.80;1.00;;;15.50;99.90;;;;;;5001996;28;20220;-79
2022/10/08 13:03:15;;;;;;;7.87;1.20;;;15.60;99.90;;;;;;5004970;28;20228;-79
2022/10/08 13:05:43;;;;;;;4.83;1.20;;;15.60;99.90;;;;;;5022952;28;20232;-78
2022/10/08 13:08:33;;;;;;;3.87;1.10;;;15.60;99.90;;;;;;5010057;28;20300;-79
2022/10/08 13:11:02;;;;;;;4.83;1.40;;;15.60;99.90;;;;;;5006538;28;20232;-79